Ramat Gan, Israel
Current Conditions -  °F | °C
As of 10:50 PM on Wednesday 22 Oct 2014 (Local Time) from LLSD Reporting Station
Clear Clear  
Wind Chill: 72°   Ceiling: Unl
Heat Index: 72°   Visibility: 6mi
Dew Point: 57°   Wind: 3mph
Humidity: 60%   Direction: NA
Pressure: 29.91"   Gusts: NA
Location:  32.08°N, 34.8°E
Report Text: LLSD 221950Z VRB03KT CAVOK 22/14 Q1013
Loading
Personal Weather Stations






























Interactive Weather Map
Tropical Storm Tracking
New forecast layout! Learn more

10-Day Weather Forecast

Advertisements
Track Severe Weather on mobile